createdAt,value
2018-03-19T00:01:41.450Z,5.30
2018-03-19T00:04:09.789Z,5.10
2018-03-19T00:06:37.377Z,5.73
2018-03-19T00:09:05.715Z,5.13
2018-03-19T00:11:33.280Z,4.63
2018-03-19T00:14:00.891Z,5.57
2018-03-19T00:16:28.453Z,6.37
2018-03-19T00:18:56.798Z,4.47
2018-03-19T00:21:24.390Z,5.50
2018-03-19T00:23:52.734Z,4.90
2018-03-19T00:26:20.410Z,4.83
2018-03-19T00:28:47.990Z,4.57
2018-03-19T00:31:16.324Z,5.00
2018-03-19T00:33:43.936Z,5.73
2018-03-19T00:36:11.500Z,5.13
2018-03-19T00:38:39.077Z,5.27
2018-03-19T00:41:06.661Z,5.07
2018-03-19T00:43:34.226Z,5.27
2018-03-19T00:46:01.885Z,5.60
2018-03-19T00:48:29.588Z,5.20
2018-03-19T00:50:57.918Z,5.67
2018-03-19T00:53:25.496Z,4.97
2018-03-19T00:55:54.617Z,5.43
2018-03-19T00:58:22.427Z,5.30
2018-03-19T01:00:50.013Z,5.30
2018-03-19T01:03:17.695Z,5.40
2018-03-19T01:05:46.052Z,5.33
2018-03-19T01:08:13.648Z,5.67
2018-03-19T01:10:41.988Z,5.03
2018-03-19T01:13:09.583Z,5.00
2018-03-19T01:15:37.909Z,5.20
2018-03-19T01:18:05.484Z,5.50
2018-03-19T01:20:33.117Z,4.97
2018-03-19T01:23:00.715Z,5.90
2018-03-19T01:25:28.268Z,5.47
2018-03-19T01:27:55.834Z,5.40
2018-03-19T01:30:23.422Z,5.13
2018-03-19T01:32:50.989Z,4.87
2018-03-19T01:35:18.569Z,5.27
2018-03-19T01:37:46.379Z,5.60
2018-03-19T01:40:13.962Z,5.10
2018-03-19T01:42:42.277Z,5.17
2018-03-19T01:45:09.907Z,5.80
2018-03-19T01:47:37.478Z,4.97
2018-03-19T01:50:05.023Z,4.93
2018-03-19T01:52:44.619Z,5.27
2018-03-19T01:55:12.202Z,5.30
2018-03-19T01:57:39.782Z,6.07
2018-03-19T02:00:08.142Z,4.87
2018-03-19T02:02:36.490Z,5.10
2018-03-19T02:05:04.092Z,5.87
2018-03-19T02:07:31.665Z,5.27
2018-03-19T02:09:59.236Z,5.70
2018-03-19T02:12:26.935Z,5.90
2018-03-19T02:14:54.522Z,6.00
2018-03-19T02:17:22.863Z,6.17
2018-03-19T02:19:50.477Z,6.40
2018-03-19T02:22:18.811Z,6.20
2018-03-19T02:24:46.407Z,4.83
2018-03-19T02:27:14.741Z,5.20
2018-03-19T02:29:42.312Z,5.33
2018-03-19T02:32:09.882Z,6.47
2018-03-19T02:34:37.469Z,5.80
2018-03-19T02:37:05.883Z,5.47
2018-03-19T02:39:33.454Z,4.90
2018-03-19T02:42:01.016Z,5.13
2018-03-19T02:44:28.628Z,5.80
2018-03-19T02:46:57.047Z,5.83
2018-03-19T02:49:24.588Z,6.53
2018-03-19T02:51:52.201Z,5.70
2018-03-19T02:54:19.848Z,6.50
2018-03-19T02:56:47.419Z,6.60
2018-03-19T02:59:14.985Z,5.57
2018-03-19T03:01:43.344Z,5.47
2018-03-19T03:04:10.910Z,5.57
2018-03-19T03:06:38.502Z,5.30
2018-03-19T03:09:06.089Z,6.40
2018-03-19T03:11:33.660Z,5.30
2018-03-19T03:14:01.255Z,5.00
2018-03-19T03:16:28.874Z,6.10
2018-03-19T03:18:56.425Z,6.90
2018-03-19T03:21:24.004Z,5.73
2018-03-19T03:23:51.588Z,5.10
2018-03-19T03:26:19.186Z,5.70
2018-03-19T03:28:46.808Z,6.00
2018-03-19T03:31:14.388Z,5.70
2018-03-19T03:33:42.709Z,5.80
2018-03-19T03:36:10.305Z,5.80
2018-03-19T03:38:37.860Z,6.00
2018-03-19T03:41:05.454Z,5.97
2018-03-19T03:43:33.801Z,5.10
2018-03-19T03:46:01.378Z,6.20
2018-03-19T03:48:29.740Z,6.30
2018-03-19T03:50:57.349Z,6.00
2018-03-19T03:53:24.892Z,6.20
2018-03-19T03:55:53.218Z,6.03
2018-03-19T03:58:20.893Z,5.97
2018-03-19T04:00:48.481Z,6.07
2018-03-19T04:03:16.814Z,6.10
2018-03-19T04:05:44.500Z,6.70
2018-03-19T04:08:12.161Z,6.57
2018-03-19T04:10:39.734Z,6.57
2018-03-19T04:13:07.344Z,5.70
2018-03-19T04:15:34.921Z,5.90
2018-03-19T04:18:02.527Z,5.57
2018-03-19T04:20:30.869Z,6.47
2018-03-19T04:22:58.476Z,6.80
2018-03-19T04:25:26.787Z,5.67
2018-03-19T04:27:54.375Z,6.63
2018-03-19T04:30:21.980Z,6.63
2018-03-19T04:32:49.592Z,7.03
2018-03-19T04:35:17.173Z,6.83
2018-03-19T04:37:45.493Z,6.40
2018-03-19T04:40:13.057Z,6.43
2018-03-19T04:42:40.634Z,6.70
2018-03-19T04:45:08.194Z,6.33
2018-03-19T04:47:35.798Z,6.77
2018-03-19T04:50:04.109Z,7.00
2018-03-19T04:52:31.703Z,6.40
2018-03-19T04:54:59.291Z,6.03
2018-03-19T04:57:27.628Z,7.03
2018-03-19T04:59:55.208Z,7.90
2018-03-19T05:02:22.809Z,7.27
2018-03-19T05:04:50.364Z,5.33
2018-03-19T05:07:18.051Z,6.00
2018-03-19T05:09:45.620Z,7.03
2018-03-19T05:12:13.209Z,6.63
2018-03-19T05:14:40.790Z,6.50
2018-03-19T05:17:08.350Z,6.63
2018-03-19T05:19:36.873Z,6.47
2018-03-19T05:22:04.457Z,7.00
2018-03-19T05:24:32.021Z,7.00
2018-03-19T05:26:59.590Z,6.50
2018-03-19T05:29:27.184Z,6.80
2018-03-19T05:31:54.751Z,7.30
2018-03-19T05:34:22.316Z,6.67
2018-03-19T05:36:49.892Z,6.57
2018-03-19T05:39:17.833Z,6.47
2018-03-19T05:41:45.442Z,6.37
2018-03-19T05:44:13.025Z,6.97
2018-03-19T05:46:41.377Z,6.30
2018-03-19T05:49:08.949Z,8.00
2018-03-19T05:51:36.525Z,7.77
2018-03-19T05:54:04.876Z,7.70
2018-03-19T05:56:32.472Z,6.30
2018-03-19T05:59:00.801Z,7.43
2018-03-19T06:01:28.362Z,7.20
2018-03-19T06:03:55.948Z,7.70
2018-03-19T06:06:23.508Z,6.90
2018-03-19T06:08:51.840Z,7.50
2018-03-19T06:11:19.425Z,8.23
2018-03-19T06:13:46.986Z,7.53
2018-03-19T06:16:14.547Z,8.20
2018-03-19T06:18:43.637Z,8.57
2018-03-19T06:21:11.203Z,8.60
2018-03-19T06:23:38.792Z,7.83
2018-03-19T06:26:07.146Z,7.40
2018-03-19T06:28:34.700Z,7.43
2018-03-19T06:31:02.368Z,6.60
2018-03-19T06:33:29.939Z,7.53
2018-03-19T06:35:57.508Z,7.70
2018-03-19T06:38:25.888Z,6.40
2018-03-19T06:40:54.361Z,7.63
2018-03-19T06:43:21.932Z,8.10
2018-03-19T06:45:50.273Z,7.50
2018-03-19T06:48:17.838Z,6.90
2018-03-19T06:50:45.428Z,8.40
2018-03-19T06:53:13.781Z,6.93
2018-03-19T06:55:41.368Z,7.77
2018-03-19T06:58:09.736Z,7.63
2018-03-19T07:00:37.298Z,8.83
2018-03-19T07:03:05.640Z,8.13
2018-03-19T07:05:33.201Z,8.10
2018-03-19T07:08:00.812Z,9.50
2018-03-19T07:10:28.453Z,8.17
2018-03-19T07:12:56.800Z,8.70
2018-03-19T07:15:24.370Z,8.93
2018-03-19T07:17:51.936Z,8.20
2018-03-19T07:20:19.585Z,8.40
2018-03-19T07:22:47.174Z,8.53
2018-03-19T07:25:15.535Z,8.67
2018-03-19T07:27:43.104Z,9.73
2018-03-19T07:30:10.769Z,8.30
2018-03-19T07:32:39.132Z,9.30
2018-03-19T07:35:06.698Z,9.57
2018-03-19T07:37:34.276Z,9.67
2018-03-19T07:40:02.640Z,8.50
2018-03-19T07:42:30.212Z,9.00
2018-03-19T07:44:58.551Z,8.57
2018-03-19T07:47:26.172Z,10.47
2018-03-19T07:49:53.755Z,9.10
2018-03-19T07:52:21.341Z,9.37
2018-03-19T07:54:48.942Z,8.97
2018-03-19T07:57:16.564Z,8.60
2018-03-19T07:59:44.144Z,9.43
2018-03-19T08:02:12.481Z,7.53
2018-03-19T08:04:40.086Z,8.60
2018-03-19T08:07:08.544Z,9.17
2018-03-19T08:09:36.124Z,8.47
2018-03-19T08:12:04.482Z,8.43
2018-03-19T08:14:32.080Z,7.97
2018-03-19T08:16:59.659Z,7.83
2018-03-19T08:19:27.248Z,8.83
2018-03-19T08:21:54.834Z,7.97
2018-03-19T08:24:22.440Z,9.50
2018-03-19T08:27:07.418Z,7.73
2018-03-19T08:29:35.018Z,8.20
2018-03-19T08:32:02.685Z,8.10
2018-03-19T08:34:31.066Z,7.70
2018-03-19T08:36:59.404Z,8.77
2018-03-19T08:39:26.981Z,7.80
2018-03-19T08:41:54.547Z,7.00
2018-03-19T08:44:22.150Z,8.13
2018-03-19T08:46:49.751Z,8.70
2018-03-19T08:49:17.370Z,7.27
2018-03-19T08:51:44.936Z,7.77
2018-03-19T08:54:12.536Z,6.97
2018-03-19T08:56:40.199Z,6.40
2018-03-19T08:59:07.785Z,8.10
2018-03-19T09:01:36.148Z,7.07
2018-03-19T09:04:03.708Z,7.00
2018-03-19T09:06:31.282Z,7.60
2018-03-19T09:08:59.643Z,7.73
2018-03-19T09:11:27.255Z,7.10
2018-03-19T09:13:54.831Z,8.17
2018-03-19T09:16:22.407Z,6.27
2018-03-19T09:18:49.995Z,7.50
2018-03-19T09:21:17.564Z,5.60
2018-03-19T09:23:45.156Z,6.93
2018-03-19T09:26:12.745Z,6.77
2018-03-19T09:28:40.311Z,6.47
2018-03-19T09:31:07.916Z,6.77
2018-03-19T09:33:36.278Z,6.23
2018-03-19T09:36:04.624Z,6.83
2018-03-19T09:38:32.197Z,8.53
2018-03-19T09:40:59.772Z,7.57
2018-03-19T09:43:28.095Z,7.03
2018-03-19T09:45:55.645Z,7.80
2018-03-19T09:48:23.233Z,8.00
2018-03-19T09:50:50.804Z,7.00
2018-03-19T09:53:18.355Z,7.60
2018-03-19T09:55:45.948Z,7.03
2018-03-19T09:58:14.561Z,8.00
2018-03-19T10:00:42.121Z,8.00
2018-03-19T10:03:09.734Z,7.90
2018-03-19T10:05:37.461Z,6.93
2018-03-19T10:08:04.913Z,6.70
2018-03-19T10:10:32.526Z,6.90
2018-03-19T10:13:00.452Z,6.87
2018-03-19T10:15:29.600Z,7.17
2018-03-19T10:17:57.936Z,6.97
2018-03-19T10:20:25.515Z,7.90
2018-03-19T10:22:53.083Z,7.17
2018-03-19T10:25:20.669Z,6.77
2018-03-19T10:27:48.995Z,6.67
2018-03-19T10:30:16.541Z,6.83
2018-03-19T10:32:44.112Z,6.83
2018-03-19T10:35:11.682Z,7.13
2018-03-19T10:37:39.240Z,6.40
2018-03-19T10:40:06.806Z,6.50
2018-03-19T10:42:34.379Z,6.17
2018-03-19T10:45:02.691Z,5.30
2018-03-19T10:47:30.248Z,5.40
2018-03-19T10:49:57.845Z,5.60
2018-03-19T10:52:25.419Z,5.73
2018-03-19T10:54:52.990Z,4.70
2018-03-19T10:57:21.355Z,5.77
2018-03-19T10:59:50.451Z,5.50
2018-03-19T11:02:23.675Z,5.77
2018-03-19T11:04:52.004Z,8.40
2018-03-19T11:07:25.349Z,5.67
2018-03-19T11:09:53.682Z,5.90
2018-03-19T11:12:21.268Z,5.90
2018-03-19T11:14:49.634Z,6.07
2018-03-19T11:17:17.225Z,6.20
2018-03-19T11:19:45.603Z,5.10
2018-03-19T11:22:13.142Z,5.90
2018-03-19T11:24:42.241Z,5.83
2018-03-19T11:27:10.598Z,5.10
2018-03-19T11:29:38.160Z,5.53
2018-03-19T11:32:05.833Z,5.60
2018-03-19T11:34:33.500Z,6.00
2018-03-19T11:37:01.129Z,5.20
2018-03-19T11:39:28.690Z,5.60
2018-03-19T11:41:56.254Z,4.50
2018-03-19T11:44:23.837Z,5.50
2018-03-19T11:46:51.489Z,5.70
2018-03-19T11:49:19.137Z,5.73
2018-03-19T11:51:46.748Z,5.33
2018-03-19T11:54:14.297Z,6.23
2018-03-19T11:56:41.929Z,5.53
2018-03-19T11:59:09.534Z,5.50
2018-03-19T12:01:37.093Z,4.70
2018-03-19T12:04:04.688Z,4.80
2018-03-19T12:06:32.247Z,5.17
2018-03-19T12:08:59.809Z,4.43
2018-03-19T12:11:27.394Z,5.50
2018-03-19T12:13:54.959Z,4.93
2018-03-19T12:16:22.592Z,4.57
2018-03-19T12:18:50.174Z,3.77
2018-03-19T12:21:17.738Z,4.30
2018-03-19T12:23:45.330Z,4.27
2018-03-19T12:26:12.913Z,3.70
2018-03-19T12:28:40.516Z,4.10
2018-03-19T12:31:08.856Z,3.33
2018-03-19T12:33:36.430Z,3.60
2018-03-19T12:36:04.000Z,3.60
2018-03-19T12:38:31.661Z,4.43
2018-03-19T12:40:59.320Z,3.80
2018-03-19T12:43:26.892Z,3.30
2018-03-19T12:45:54.478Z,4.22
2018-03-19T12:48:22.820Z,3.90
2018-03-19T12:50:51.965Z,4.57
2018-03-19T12:53:19.505Z,4.60
2018-03-19T12:55:47.835Z,4.03
2018-03-19T12:58:15.420Z,4.00
2018-03-19T13:00:42.972Z,4.63
2018-03-19T13:03:10.603Z,4.97
2018-03-19T13:05:38.182Z,3.60
2018-03-19T13:08:05.736Z,4.80
2018-03-19T13:10:33.324Z,5.03
2018-03-19T13:13:00.906Z,4.40
2018-03-19T13:15:28.526Z,4.17
2018-03-19T13:17:56.102Z,4.47
2018-03-19T13:20:23.661Z,4.37
2018-03-19T13:22:51.220Z,4.97
2018-03-19T13:25:18.784Z,4.63
2018-03-19T13:27:46.380Z,4.20
2018-03-19T13:30:13.926Z,4.50
2018-03-19T13:32:41.540Z,4.07
2018-03-19T13:35:09.218Z,4.40
2018-03-19T13:37:38.297Z,3.87
2018-03-19T13:40:05.905Z,3.97
2018-03-19T13:42:33.466Z,4.60
2018-03-19T13:45:01.070Z,5.10
2018-03-19T13:47:28.620Z,4.10
2018-03-19T13:49:56.190Z,4.97
2018-03-19T13:52:23.760Z,4.10
2018-03-19T13:54:51.434Z,3.90
2018-03-19T13:57:18.998Z,6.00
2018-03-19T13:59:46.653Z,5.10
2018-03-19T14:02:14.214Z,4.60
2018-03-19T14:04:42.581Z,4.37
2018-03-19T14:07:10.167Z,4.60
2018-03-19T14:09:37.772Z,4.13
2018-03-19T14:12:05.349Z,5.20
2018-03-19T14:14:32.937Z,4.37
2018-03-19T14:17:00.567Z,4.70
2018-03-19T14:19:28.123Z,4.90
2018-03-19T14:21:55.677Z,4.50
2018-03-19T14:24:23.242Z,5.33
2018-03-19T14:26:50.844Z,5.13
2018-03-19T14:29:19.179Z,4.60
2018-03-19T14:31:46.740Z,4.20
2018-03-19T14:34:14.316Z,4.83
2018-03-19T14:36:41.892Z,4.10
2018-03-19T14:39:09.665Z,5.03
2018-03-19T14:41:37.982Z,4.50
2018-03-19T14:44:05.541Z,5.27
2018-03-19T14:46:33.118Z,4.00
2018-03-19T14:49:00.679Z,5.40
2018-03-19T14:51:28.233Z,4.43
2018-03-19T14:53:55.827Z,4.90
2018-03-19T14:56:23.497Z,4.17
2018-03-19T14:58:51.828Z,4.40
2018-03-19T15:01:19.429Z,4.20
2018-03-19T15:03:47.780Z,3.80
2018-03-19T15:06:15.358Z,4.20
2018-03-19T15:08:42.932Z,4.23
2018-03-19T15:11:11.295Z,4.30
2018-03-19T15:13:38.858Z,8.80
2018-03-19T15:16:06.433Z,7.43
2018-03-19T15:18:34.781Z,9.37
2018-03-19T15:21:02.363Z,7.23
2018-03-19T15:23:30.698Z,6.60
2018-03-19T15:25:58.312Z,4.20
2018-03-19T15:28:26.740Z,5.23
2018-03-19T15:30:54.368Z,5.27
2018-03-19T15:33:21.967Z,4.23
2018-03-19T15:35:49.604Z,4.20
2018-03-19T15:38:17.232Z,4.23
2018-03-19T15:40:45.566Z,5.27
2018-03-19T15:43:13.121Z,5.17
2018-03-19T15:45:40.696Z,4.30
2018-03-19T15:48:08.263Z,5.00
2018-03-19T15:50:35.859Z,5.83
2018-03-19T15:53:03.578Z,5.53
2018-03-19T15:55:31.151Z,5.27
2018-03-19T15:57:58.711Z,4.60
2018-03-19T16:00:26.384Z,4.93
2018-03-19T16:02:54.726Z,4.40
2018-03-19T16:05:22.284Z,5.27
2018-03-19T16:07:49.883Z,4.70
2018-03-19T16:10:18.212Z,4.50
2018-03-19T16:12:45.801Z,4.60
2018-03-19T16:15:13.380Z,4.87
2018-03-19T16:17:41.756Z,5.03
2018-03-19T16:20:10.076Z,4.83
2018-03-19T16:22:37.647Z,4.73
2018-03-19T16:25:05.209Z,4.13
2018-03-19T16:27:32.765Z,5.17
2018-03-19T16:30:00.366Z,5.00
2018-03-19T16:32:27.924Z,5.00
2018-03-19T16:34:55.504Z,5.70
2018-03-19T16:37:23.816Z,5.20
2018-03-19T16:39:51.415Z,5.13
2018-03-19T16:42:19.037Z,5.47
2018-03-19T16:44:46.639Z,5.10
2018-03-19T16:47:14.205Z,6.07
2018-03-19T16:49:42.600Z,4.67
2018-03-19T16:52:10.972Z,5.27
2018-03-19T16:54:38.553Z,5.80
2018-03-19T16:57:06.124Z,5.50
2018-03-19T16:59:33.717Z,5.70
2018-03-19T17:02:01.293Z,6.20
2018-03-19T17:04:28.875Z,5.60
2018-03-19T17:06:57.204Z,4.97
2018-03-19T17:09:24.770Z,5.40
2018-03-19T17:11:52.385Z,5.60
2018-03-19T17:14:20.708Z,6.00
2018-03-19T17:16:48.269Z,6.33
2018-03-19T17:19:15.860Z,5.90
2018-03-19T17:21:44.196Z,5.70
2018-03-19T17:24:11.741Z,5.00
2018-03-19T17:26:39.306Z,5.73
2018-03-19T17:29:06.902Z,5.60
2018-03-19T17:31:34.458Z,6.40
2018-03-19T17:34:02.181Z,5.40
2018-03-19T17:36:29.777Z,5.17
2018-03-19T17:38:57.328Z,6.10
2018-03-19T17:41:24.896Z,5.43
2018-03-19T17:43:52.557Z,5.80
2018-03-19T17:46:20.116Z,5.40
2018-03-19T17:48:47.682Z,5.30
2018-03-19T17:51:15.567Z,5.33
2018-03-19T17:53:43.145Z,5.33
2018-03-19T17:56:10.718Z,5.60
2018-03-19T17:58:38.323Z,5.30
2018-03-19T18:01:05.880Z,6.00
2018-03-19T18:03:33.435Z,4.47
2018-03-19T18:06:01.000Z,6.03
2018-03-19T18:08:28.659Z,5.17
2018-03-19T18:10:56.249Z,5.00
2018-03-19T18:13:24.663Z,5.50
2018-03-19T18:15:52.225Z,6.80
2018-03-19T18:18:19.834Z,5.80
2018-03-19T18:20:48.168Z,6.23
2018-03-19T18:23:15.727Z,7.53
2018-03-19T18:25:43.382Z,8.53
2018-03-19T18:28:10.978Z,10.17
2018-03-19T18:30:38.568Z,10.40
2018-03-19T18:33:06.941Z,9.03
2018-03-19T18:35:35.272Z,9.80
2018-03-19T18:38:02.830Z,9.93
2018-03-19T18:40:30.411Z,10.27
2018-03-19T18:42:58.067Z,10.00
2018-03-19T18:45:25.768Z,10.90
2018-03-19T18:47:54.215Z,11.27
2018-03-19T18:50:22.548Z,10.23
2018-03-19T18:52:50.117Z,10.77
2018-03-19T18:55:17.693Z,11.83
2018-03-19T18:57:45.274Z,12.90
2018-03-19T19:00:12.896Z,9.80
2018-03-19T19:02:40.464Z,9.83
2018-03-19T19:05:08.025Z,10.30
2018-03-19T19:07:35.616Z,9.30
2018-03-19T19:10:03.227Z,10.00
2018-03-19T19:12:30.814Z,10.37
2018-03-19T19:14:58.415Z,8.50
2018-03-19T19:17:26.733Z,9.10
2018-03-19T19:19:54.300Z,10.23
2018-03-19T19:22:21.898Z,10.47
2018-03-19T19:24:49.464Z,9.70
2018-03-19T19:27:17.825Z,9.40
2018-03-19T19:29:45.484Z,10.47
2018-03-19T19:32:13.151Z,9.50
2018-03-19T19:34:40.816Z,10.47
2018-03-19T19:37:08.417Z,9.23
2018-03-19T19:39:36.057Z,10.33
2018-03-19T19:42:05.144Z,10.80
2018-03-19T19:44:33.511Z,8.97
2018-03-19T19:47:01.079Z,9.00
2018-03-19T19:49:28.734Z,9.40
2018-03-19T19:51:56.314Z,9.83
2018-03-19T19:54:24.644Z,9.67
2018-03-19T19:56:52.248Z,10.57
2018-03-19T19:59:20.596Z,9.97
2018-03-19T20:01:48.261Z,10.80
2018-03-19T20:04:15.928Z,11.30
2018-03-19T20:06:43.503Z,10.57
2018-03-19T20:09:11.830Z,9.97
2018-03-19T20:11:39.420Z,10.40
2018-03-19T20:14:06.997Z,10.47
2018-03-19T20:16:35.355Z,8.13
2018-03-19T20:19:02.936Z,9.30
2018-03-19T20:21:32.114Z,8.90
2018-03-19T20:23:59.676Z,9.60
2018-03-19T20:26:27.335Z,8.50
2018-03-19T20:28:54.900Z,9.97
2018-03-19T20:31:22.528Z,9.37
2018-03-19T20:33:50.136Z,10.20
2018-03-19T20:36:18.461Z,9.10
2018-03-19T20:38:46.052Z,9.30
2018-03-19T20:41:13.668Z,8.67
2018-03-19T20:43:41.286Z,8.33
2018-03-19T20:46:08.860Z,9.43
2018-03-19T20:48:37.232Z,9.70
2018-03-19T20:51:04.804Z,9.00
2018-03-19T20:53:33.150Z,9.50
2018-03-19T20:56:00.860Z,10.50
2018-03-19T20:58:28.581Z,9.63
2018-03-19T21:00:56.191Z,10.33
2018-03-19T21:03:23.808Z,9.17
2018-03-19T21:05:51.386Z,9.50
2018-03-19T21:08:19.727Z,9.87
2018-03-19T21:10:47.361Z,9.67
2018-03-19T21:13:14.929Z,9.67
2018-03-19T21:15:42.507Z,9.50
2018-03-19T21:18:10.165Z,9.90
2018-03-19T21:20:37.764Z,10.73
2018-03-19T21:23:06.115Z,10.83
2018-03-19T21:25:33.666Z,9.53
2018-03-19T21:28:02.774Z,10.13
2018-03-19T21:30:30.355Z,10.10
2018-03-19T21:32:58.695Z,9.27
2018-03-19T21:35:26.278Z,10.30
2018-03-19T21:37:54.604Z,10.87
2018-03-19T21:40:22.215Z,10.80
2018-03-19T21:42:50.583Z,10.33
2018-03-19T21:45:18.153Z,10.90
2018-03-19T21:47:45.765Z,10.50
2018-03-19T21:50:13.326Z,9.40
2018-03-19T21:52:40.962Z,10.83
2018-03-19T21:55:08.547Z,9.97
2018-03-19T21:57:36.120Z,9.60
2018-03-19T22:00:03.768Z,9.30
2018-03-19T22:02:31.331Z,9.37
2018-03-19T22:04:58.906Z,9.00
2018-03-19T22:07:26.489Z,8.87
2018-03-19T22:09:54.075Z,9.23
2018-03-19T22:12:21.697Z,8.50
2018-03-19T22:14:49.260Z,8.60
2018-03-19T22:17:16.844Z,8.63
2018-03-19T22:19:45.176Z,8.97
2018-03-19T22:22:12.768Z,8.20
2018-03-19T22:24:40.337Z,8.93
2018-03-19T22:27:08.673Z,7.97
2018-03-19T22:29:36.257Z,9.70
2018-03-19T22:32:04.622Z,7.60
2018-03-19T22:34:32.216Z,8.87
2018-03-19T22:37:00.557Z,7.50
2018-03-19T22:39:28.146Z,7.53
2018-03-19T22:41:56.626Z,5.73
2018-03-19T22:44:25.052Z,6.67
2018-03-19T22:46:52.656Z,6.90
2018-03-19T22:49:20.218Z,7.17
2018-03-19T22:51:48.588Z,7.90
2018-03-19T22:54:16.156Z,8.00
2018-03-19T22:56:44.600Z,7.83
2018-03-19T22:59:12.196Z,7.57
2018-03-19T23:01:39.773Z,7.10
2018-03-19T23:04:08.117Z,7.73
2018-03-19T23:06:35.701Z,7.50
2018-03-19T23:09:04.058Z,6.70
2018-03-19T23:11:31.628Z,6.97
2018-03-19T23:13:59.281Z,7.33
2018-03-19T23:16:26.970Z,7.20
2018-03-19T23:18:55.325Z,7.20
2018-03-19T23:21:22.908Z,6.80
2018-03-19T23:23:51.251Z,7.03
2018-03-19T23:26:18.914Z,6.53
2018-03-19T23:28:46.489Z,6.50
2018-03-19T23:31:14.043Z,6.87
2018-03-19T23:33:41.622Z,6.50
2018-03-19T23:36:09.962Z,7.10
2018-03-19T23:38:37.544Z,6.50
2018-03-19T23:41:05.908Z,5.53
2018-03-19T23:43:33.468Z,6.33
2018-03-19T23:46:02.020Z,6.20
2018-03-19T23:48:29.613Z,5.10
2018-03-19T23:50:58.713Z,6.60
2018-03-19T23:53:26.329Z,6.87
2018-03-19T23:55:53.895Z,6.43
2018-03-19T23:58:21.480Z,6.87
